createdAt,value
2023-06-20T00:00:28.529Z,21.66
2023-06-20T00:03:35.076Z,21.63
2023-06-20T00:06:23.603Z,21.61
2023-06-20T00:09:10.542Z,21.52
2023-06-20T00:11:57.259Z,21.50
2023-06-20T00:14:43.580Z,21.46
2023-06-20T00:17:30.170Z,21.43
2023-06-20T00:20:16.793Z,21.41
2023-06-20T00:23:03.543Z,21.39
2023-06-20T00:25:50.065Z,21.37
2023-06-20T00:28:36.725Z,21.36
2023-06-20T00:31:23.395Z,21.31
2023-06-20T00:34:10.331Z,21.33
2023-06-20T00:36:57.185Z,21.31
2023-06-20T00:39:43.925Z,21.30
2023-06-20T00:42:30.316Z,21.28
2023-06-20T00:45:29.287Z,21.23
2023-06-20T00:48:17.490Z,21.22
2023-06-20T00:51:04.341Z,21.23
2023-06-20T00:53:51.640Z,21.22
2023-06-20T00:56:38.553Z,21.19
2023-06-20T00:59:25.235Z,21.18
2023-06-20T01:02:15.259Z,21.12
2023-06-20T01:05:03.700Z,21.12
2023-06-20T01:07:59.385Z,21.12
2023-06-20T01:11:04.408Z,21.09
2023-06-20T01:14:04.578Z,21.06
2023-06-20T01:17:17.491Z,21.00
2023-06-20T01:20:17.580Z,20.95
2023-06-20T01:23:09.648Z,20.93
2023-06-20T01:26:41.998Z,20.91
2023-06-20T01:29:41.029Z,20.87
2023-06-20T01:32:30.019Z,20.84
2023-06-20T01:35:22.618Z,20.80
2023-06-20T01:38:12.125Z,20.77
2023-06-20T01:41:01.051Z,20.71
2023-06-20T01:43:51.126Z,20.68
2023-06-20T01:46:37.767Z,20.59
2023-06-20T01:49:26.994Z,20.47
2023-06-20T01:52:15.852Z,20.41
2023-06-20T01:55:07.203Z,20.35
2023-06-20T01:57:56.351Z,20.28
2023-06-20T02:00:44.408Z,20.19
2023-06-20T02:03:33.091Z,20.08
2023-06-20T02:06:21.363Z,19.99
2023-06-20T02:09:08.630Z,19.89
2023-06-20T02:11:56.352Z,19.79
2023-06-20T02:14:45.104Z,19.72
2023-06-20T02:17:34.226Z,19.64
2023-06-20T02:20:21.451Z,19.54
2023-06-20T02:23:11.239Z,19.55
2023-06-20T02:26:11.157Z,19.53
2023-06-20T02:29:05.226Z,19.47
2023-06-20T02:31:52.841Z,19.41
2023-06-20T02:34:44.476Z,19.40
2023-06-20T02:37:34.622Z,19.35
2023-06-20T02:40:24.879Z,19.31
2023-06-20T02:43:12.285Z,19.25
2023-06-20T02:46:24.316Z,19.15
2023-06-20T02:49:40.867Z,19.07
2023-06-20T02:52:45.867Z,18.95
2023-06-20T02:55:58.532Z,19.08
2023-06-20T02:58:52.417Z,19.11
2023-06-20T03:01:41.992Z,19.07
2023-06-20T03:04:33.541Z,19.04
2023-06-20T03:07:21.241Z,18.98
2023-06-20T03:10:09.806Z,18.98
2023-06-20T03:12:57.406Z,18.96
2023-06-20T03:15:44.540Z,18.98
2023-06-20T03:18:31.443Z,19.01
2023-06-20T03:24:09.422Z,19.08
2023-06-20T03:26:58.017Z,19.12
2023-06-20T03:29:44.654Z,19.13
2023-06-20T03:32:31.541Z,19.14
2023-06-20T03:35:18.431Z,19.17
2023-06-20T03:38:05.344Z,19.22
2023-06-20T03:40:53.126Z,19.32
2023-06-20T03:43:39.475Z,19.42
2023-06-20T03:46:26.250Z,19.47
2023-06-20T03:49:12.867Z,19.52
2023-06-20T03:52:00.328Z,19.59
2023-06-20T03:54:46.750Z,19.68
2023-06-20T03:57:34.159Z,19.80
2023-06-20T04:00:20.923Z,19.89
2023-06-20T04:03:07.658Z,19.96
2023-06-20T04:05:54.374Z,20.08
2023-06-20T04:08:41.302Z,20.18
2023-06-20T04:11:27.825Z,20.28
2023-06-20T04:14:14.585Z,20.39
2023-06-20T04:17:01.202Z,20.50
2023-06-20T04:19:48.448Z,20.65
2023-06-20T04:22:35.144Z,20.80
2023-06-20T04:25:21.439Z,20.94
2023-06-20T04:28:09.338Z,21.12
2023-06-20T04:31:07.553Z,21.26
2023-06-20T04:33:55.830Z,21.38
2023-06-20T04:36:42.220Z,21.51
2023-06-20T04:39:31.242Z,21.67
2023-06-20T04:42:18.309Z,21.77
2023-06-20T04:45:06.929Z,21.89
2023-06-20T04:47:53.424Z,22.03
2023-06-20T04:50:39.761Z,22.17
2023-06-20T04:53:27.266Z,22.30
2023-06-20T04:56:17.101Z,22.41
2023-06-20T04:59:03.855Z,22.53
2023-06-20T05:01:52.597Z,22.67
2023-06-20T05:04:39.517Z,22.79
2023-06-20T05:07:26.140Z,22.87
2023-06-20T05:10:12.740Z,23.00
2023-06-20T05:12:59.241Z,23.10
2023-06-20T05:15:45.633Z,23.22
2023-06-20T05:18:32.877Z,23.31
2023-06-20T05:21:19.511Z,23.40
2023-06-20T05:24:06.005Z,23.51
2023-06-20T05:26:52.816Z,23.62
2023-06-20T05:29:39.374Z,23.68
2023-06-20T05:32:26.052Z,23.71
2023-06-20T05:35:13.117Z,23.79
2023-06-20T05:38:01.189Z,23.90
2023-06-20T05:40:47.458Z,23.94
2023-06-20T05:43:34.537Z,24.06
2023-06-20T05:46:21.294Z,24.20
2023-06-20T05:49:11.342Z,24.32
2023-06-20T05:52:01.008Z,24.46
2023-06-20T05:54:47.415Z,24.58
2023-06-20T05:57:34.081Z,24.68
2023-06-20T06:00:20.727Z,24.78
2023-06-20T06:03:07.619Z,24.91
2023-06-20T06:05:54.481Z,25.00
2023-06-20T06:08:42.057Z,25.11
2023-06-20T06:11:28.537Z,25.26
2023-06-20T06:14:14.865Z,25.42
2023-06-20T06:17:01.338Z,25.57
2023-06-20T06:19:47.821Z,25.67
2023-06-20T06:22:34.434Z,25.80
2023-06-20T06:25:20.909Z,25.94
2023-06-20T06:28:07.731Z,26.06
2023-06-20T06:31:01.761Z,26.15
2023-06-20T06:33:48.588Z,26.28
2023-06-20T06:36:35.620Z,26.45
2023-06-20T06:39:25.605Z,26.57
2023-06-20T06:42:12.102Z,26.69
2023-06-20T06:44:59.307Z,26.88
2023-06-20T06:47:45.939Z,27.10
2023-06-20T06:50:32.639Z,27.27
2023-06-20T06:53:19.195Z,27.39
2023-06-20T06:56:05.703Z,27.50
2023-06-20T06:58:54.595Z,27.67
2023-06-20T07:01:41.059Z,27.83
2023-06-20T07:04:27.808Z,27.94
2023-06-20T07:07:14.564Z,27.98
2023-06-20T07:10:01.459Z,28.04
2023-06-20T07:12:48.095Z,28.14
2023-06-20T07:15:34.662Z,28.21
2023-06-20T07:18:21.132Z,28.29
2023-06-20T07:21:07.431Z,28.39
2023-06-20T07:23:54.118Z,28.54
2023-06-20T07:26:40.913Z,28.71
2023-06-20T07:29:27.790Z,28.89
2023-06-20T07:32:15.675Z,29.07
2023-06-20T07:35:02.198Z,29.19
2023-06-20T07:37:48.465Z,29.25
2023-06-20T07:40:34.958Z,29.34
2023-06-20T07:43:28.165Z,29.50
2023-06-20T07:46:15.154Z,29.69
2023-06-20T07:49:01.697Z,29.76
2023-06-20T07:51:48.310Z,29.80
2023-06-20T07:54:34.772Z,29.86
2023-06-20T07:57:21.309Z,30.04
2023-06-20T08:00:12.530Z,30.17
2023-06-20T08:02:59.318Z,30.27
2023-06-20T08:05:46.040Z,30.36
2023-06-20T08:08:32.790Z,30.40
2023-06-20T08:11:23.534Z,30.52
2023-06-20T08:14:10.099Z,30.63
2023-06-20T08:16:56.799Z,30.71
2023-06-20T08:19:43.200Z,30.73
2023-06-20T08:22:30.640Z,30.74
2023-06-20T08:25:18.810Z,30.81
2023-06-20T08:28:14.404Z,30.83
2023-06-20T08:31:03.721Z,30.91
2023-06-20T08:33:50.515Z,31.05
2023-06-20T08:36:37.825Z,31.20
2023-06-20T08:39:24.491Z,31.25
2023-06-20T08:42:11.709Z,31.29
2023-06-20T08:44:59.885Z,31.34
2023-06-20T08:47:46.290Z,31.46
2023-06-20T08:50:33.844Z,31.56
2023-06-20T08:53:23.855Z,31.49
2023-06-20T08:56:11.142Z,31.46
2023-06-20T08:58:57.709Z,31.62
2023-06-20T09:01:44.566Z,31.76
2023-06-20T09:04:31.142Z,31.82
2023-06-20T09:07:19.814Z,31.94
2023-06-20T09:10:07.600Z,32.04
2023-06-20T09:12:57.786Z,32.17
2023-06-20T09:15:44.671Z,32.20
2023-06-20T09:18:32.256Z,32.07
2023-06-20T09:21:18.817Z,32.01
2023-06-20T09:24:07.011Z,32.17
2023-06-20T09:26:53.594Z,32.32
2023-06-20T09:29:53.482Z,32.40
2023-06-20T09:32:42.148Z,32.48
2023-06-20T09:35:31.458Z,32.61
2023-06-20T09:38:17.699Z,32.71
2023-06-20T09:41:08.022Z,32.81
2023-06-20T09:43:54.538Z,32.80
2023-06-20T09:46:41.298Z,32.74
2023-06-20T09:49:30.589Z,32.80
2023-06-20T09:52:18.621Z,32.79
2023-06-20T09:55:10.981Z,32.92
2023-06-20T09:57:59.671Z,33.06
2023-06-20T10:00:46.761Z,33.10
2023-06-20T10:03:35.729Z,33.06
2023-06-20T10:06:23.262Z,33.07
2023-06-20T10:09:11.100Z,33.06
2023-06-20T10:11:57.963Z,33.04
2023-06-20T10:14:44.722Z,33.12
2023-06-20T10:17:33.050Z,33.16
2023-06-20T10:20:33.194Z,33.16
2023-06-20T10:23:21.541Z,33.25
2023-06-20T10:26:09.686Z,33.36
2023-06-20T10:28:57.850Z,33.50
2023-06-20T10:32:07.504Z,33.61
2023-06-20T10:34:54.121Z,33.58
2023-06-20T10:37:40.814Z,33.48
2023-06-20T10:40:31.045Z,33.54
2023-06-20T10:43:19.310Z,33.70
2023-06-20T10:46:05.854Z,33.72
2023-06-20T10:48:52.582Z,33.79
2023-06-20T10:51:49.286Z,33.78
2023-06-20T10:54:35.760Z,33.79
2023-06-20T10:57:23.466Z,33.91
2023-06-20T11:00:14.473Z,33.98
2023-06-20T11:03:01.481Z,33.98
2023-06-20T11:05:53.009Z,34.01
2023-06-20T11:08:44.456Z,34.07
2023-06-20T11:11:40.958Z,34.16
2023-06-20T11:14:27.708Z,34.29
2023-06-20T11:17:14.171Z,34.43
2023-06-20T11:20:01.698Z,34.62
2023-06-20T11:22:49.488Z,34.80
2023-06-20T11:25:38.201Z,34.89
2023-06-20T11:28:24.564Z,34.89
2023-06-20T11:31:12.182Z,34.82
2023-06-20T11:34:11.084Z,34.73
2023-06-20T11:36:58.085Z,34.72
2023-06-20T11:39:48.063Z,34.74
2023-06-20T11:42:35.533Z,34.71
2023-06-20T11:45:27.258Z,34.80
2023-06-20T11:48:16.209Z,34.82
2023-06-20T11:51:04.401Z,34.68
2023-06-20T11:54:01.903Z,34.45
2023-06-20T11:56:52.138Z,34.31
2023-06-20T11:59:38.465Z,34.61
2023-06-20T12:02:28.376Z,34.77
2023-06-20T12:05:16.551Z,34.98
2023-06-20T12:08:03.081Z,35.10
2023-06-20T12:11:01.285Z,35.07
2023-06-20T12:13:49.256Z,35.11
2023-06-20T12:16:35.910Z,35.34
2023-06-20T12:19:22.923Z,35.78
2023-06-20T12:22:09.556Z,36.35
2023-06-20T12:24:55.953Z,37.02
2023-06-20T12:27:43.101Z,37.58
2023-06-20T12:30:31.980Z,38.16
2023-06-20T12:33:19.594Z,38.71
2023-06-20T12:36:06.547Z,39.29
2023-06-20T12:38:53.185Z,39.74
2023-06-20T12:41:39.830Z,40.02
2023-06-20T12:44:26.218Z,40.41
2023-06-20T12:47:13.424Z,41.04
2023-06-20T12:50:03.849Z,41.39
2023-06-20T12:52:50.507Z,41.75
2023-06-20T12:55:37.313Z,42.30
2023-06-20T12:58:24.198Z,42.66
2023-06-20T13:01:10.539Z,42.81
2023-06-20T13:03:57.793Z,43.23
2023-06-20T13:06:44.811Z,43.65
2023-06-20T13:09:32.232Z,44.03
2023-06-20T13:12:18.975Z,44.21
2023-06-20T13:15:07.879Z,44.68
2023-06-20T13:17:57.513Z,45.15
2023-06-20T13:20:44.467Z,45.22
2023-06-20T13:23:31.164Z,45.10
2023-06-20T13:26:19.257Z,45.08
2023-06-20T13:29:05.983Z,45.20
2023-06-20T13:31:52.252Z,45.18
2023-06-20T13:34:38.770Z,45.48
2023-06-20T13:37:26.145Z,45.95
2023-06-20T13:40:13.696Z,46.47
2023-06-20T13:43:03.820Z,46.78
2023-06-20T13:45:51.033Z,46.86
2023-06-20T13:48:37.657Z,47.07
2023-06-20T13:51:24.002Z,47.20
2023-06-20T13:54:12.464Z,47.45
2023-06-20T13:56:58.904Z,47.86
2023-06-20T13:59:45.723Z,48.07
2023-06-20T14:02:32.387Z,48.13
2023-06-20T14:05:21.206Z,47.64
2023-06-20T14:08:08.132Z,47.23
2023-06-20T14:10:54.700Z,47.16
2023-06-20T14:13:41.439Z,46.84
2023-06-20T14:16:28.507Z,46.06
2023-06-20T14:19:14.844Z,45.46
2023-06-20T14:22:01.746Z,45.60
2023-06-20T14:24:48.616Z,45.99
2023-06-20T14:27:35.045Z,46.46
2023-06-20T14:30:21.810Z,47.28
2023-06-20T14:33:08.286Z,48.01
2023-06-20T14:35:54.971Z,48.52
2023-06-20T14:38:42.405Z,48.95
2023-06-20T14:41:29.200Z,49.00
2023-06-20T14:44:16.084Z,49.17
2023-06-20T14:47:02.750Z,49.00
2023-06-20T14:49:49.531Z,48.90
2023-06-20T14:52:36.130Z,48.75
2023-06-20T14:55:22.404Z,48.17
2023-06-20T14:58:09.837Z,46.74
2023-06-20T15:00:58.024Z,45.18
2023-06-20T15:03:45.717Z,43.54
2023-06-20T15:06:32.598Z,42.73
2023-06-20T15:09:19.187Z,42.63
2023-06-20T15:12:06.320Z,43.58
2023-06-20T15:14:52.808Z,45.13
2023-06-20T15:17:39.573Z,46.54
2023-06-20T15:20:26.913Z,47.41
2023-06-20T15:23:13.901Z,47.82
2023-06-20T15:26:00.537Z,48.05
2023-06-20T15:28:46.771Z,47.41
2023-06-20T15:31:33.338Z,44.95
2023-06-20T15:34:19.949Z,44.22
2023-06-20T15:37:06.773Z,43.99
2023-06-20T15:39:53.930Z,43.06
2023-06-20T15:42:40.714Z,42.23
2023-06-20T15:45:27.052Z,41.61
2023-06-20T15:48:14.523Z,41.58
2023-06-20T15:51:01.224Z,41.55
2023-06-20T15:53:47.927Z,41.28
2023-06-20T15:56:34.237Z,41.25
2023-06-20T15:59:21.016Z,41.93
2023-06-20T16:02:13.610Z,43.51
2023-06-20T16:05:00.216Z,44.68
2023-06-20T16:07:46.578Z,45.70
2023-06-20T16:10:33.368Z,46.54
2023-06-20T16:13:19.479Z,47.22
2023-06-20T16:16:06.664Z,47.93
2023-06-20T16:18:53.716Z,48.61
2023-06-20T16:21:41.152Z,48.96
2023-06-20T16:24:27.823Z,48.80
2023-06-20T16:27:14.685Z,48.13
2023-06-20T16:30:02.242Z,46.41
2023-06-20T16:32:48.871Z,46.32
2023-06-20T16:35:35.665Z,46.81
2023-06-20T16:38:25.804Z,46.93
2023-06-20T16:41:12.625Z,47.05
2023-06-20T16:43:59.117Z,46.86
2023-06-20T16:46:45.669Z,46.86
2023-06-20T16:49:35.349Z,46.91
2023-06-20T16:52:22.246Z,47.08
2023-06-20T16:55:08.923Z,47.24
2023-06-20T16:57:55.415Z,47.46
2023-06-20T17:00:41.618Z,47.50
2023-06-20T17:03:28.096Z,47.41
2023-06-20T17:06:14.805Z,47.31
2023-06-20T17:09:01.481Z,47.15
2023-06-20T17:11:51.539Z,45.85
2023-06-20T17:14:38.236Z,43.94
2023-06-20T17:17:25.616Z,42.38
2023-06-20T17:20:12.217Z,41.11
2023-06-20T17:22:59.068Z,40.10
2023-06-20T17:25:46.160Z,40.06
2023-06-20T17:28:32.395Z,40.14
2023-06-20T17:31:19.164Z,40.08
2023-06-20T17:34:05.843Z,40.04
2023-06-20T17:36:52.491Z,40.29
2023-06-20T17:39:39.274Z,40.29
2023-06-20T17:42:25.869Z,39.42
2023-06-20T17:45:12.849Z,38.39
2023-06-20T17:48:00.618Z,37.45
2023-06-20T17:50:47.412Z,36.64
2023-06-20T17:53:33.934Z,35.91
2023-06-20T17:56:20.715Z,35.28
2023-06-20T17:59:07.198Z,34.73
2023-06-20T18:01:55.873Z,34.18
2023-06-20T18:04:42.909Z,33.73
2023-06-20T18:07:29.498Z,33.32
2023-06-20T18:10:18.353Z,32.94
2023-06-20T18:13:04.908Z,32.60
2023-06-20T18:15:51.860Z,32.30
2023-06-20T18:18:40.249Z,31.92
2023-06-20T18:21:28.279Z,31.66
2023-06-20T18:24:15.066Z,31.41
2023-06-20T18:27:01.577Z,31.11
2023-06-20T18:29:48.234Z,30.92
2023-06-20T18:32:34.930Z,30.72
2023-06-20T18:35:21.465Z,30.58
2023-06-20T18:38:08.749Z,30.48
2023-06-20T18:40:55.562Z,30.37
2023-06-20T18:43:42.861Z,30.28
2023-06-20T18:46:31.420Z,30.14
2023-06-20T18:49:17.950Z,30.06
2023-06-20T18:52:05.179Z,29.91
2023-06-20T18:55:07.910Z,29.85
2023-06-20T18:57:54.479Z,29.70
2023-06-20T19:00:40.817Z,29.58
2023-06-20T19:03:27.431Z,29.41
2023-06-20T19:06:13.955Z,29.27
2023-06-20T19:09:00.624Z,29.16
2023-06-20T19:11:47.250Z,29.05
2023-06-20T19:14:35.015Z,28.94
2023-06-20T19:17:24.954Z,28.81
2023-06-20T19:20:13.049Z,28.71
2023-06-20T19:22:59.733Z,28.58
2023-06-20T19:25:46.354Z,28.51
2023-06-20T19:28:32.943Z,28.40
2023-06-20T19:31:20.119Z,28.31
2023-06-20T19:34:10.698Z,28.20
2023-06-20T19:36:57.382Z,28.10
2023-06-20T19:39:43.762Z,28.02
2023-06-20T19:42:30.874Z,27.97
2023-06-20T19:45:17.593Z,27.91
2023-06-20T19:48:04.249Z,27.84
2023-06-20T19:50:50.929Z,27.71
2023-06-20T19:53:37.778Z,27.62
2023-06-20T19:56:24.190Z,27.50
2023-06-20T19:59:10.740Z,27.37
2023-06-20T20:01:57.271Z,27.28
2023-06-20T20:04:43.972Z,27.21
2023-06-20T20:07:30.861Z,27.18
2023-06-20T20:10:17.282Z,27.14
2023-06-20T20:13:03.741Z,27.07
2023-06-20T20:15:50.795Z,26.99
2023-06-20T20:18:37.541Z,26.87
2023-06-20T20:21:24.411Z,26.81
2023-06-20T20:24:11.173Z,26.76
2023-06-20T20:26:57.724Z,26.67
2023-06-20T20:29:44.746Z,26.55
2023-06-20T20:32:31.409Z,26.45
2023-06-20T20:35:18.524Z,26.37
2023-06-20T20:38:07.197Z,26.30
2023-06-20T20:40:53.786Z,26.26
2023-06-20T20:43:40.978Z,26.25
2023-06-20T20:46:27.485Z,26.27
2023-06-20T20:49:14.377Z,26.18
2023-06-20T20:52:00.913Z,26.09
2023-06-20T20:54:48.018Z,26.01
2023-06-20T20:57:34.837Z,25.97
2023-06-20T21:00:21.660Z,25.95
2023-06-20T21:03:09.338Z,25.91
2023-06-20T21:05:56.111Z,25.96
2023-06-20T21:08:43.237Z,25.99
2023-06-20T21:11:29.967Z,26.01
2023-06-20T21:14:16.596Z,26.01
2023-06-20T21:17:03.605Z,25.98
2023-06-20T21:19:50.476Z,25.94
2023-06-20T21:22:37.786Z,25.90
2023-06-20T21:25:24.600Z,25.80
2023-06-20T21:28:11.649Z,25.75
2023-06-20T21:30:59.919Z,25.71
2023-06-20T21:33:46.487Z,25.61
2023-06-20T21:36:33.269Z,25.60
2023-06-20T21:39:19.680Z,25.55
2023-06-20T21:42:07.219Z,25.51
2023-06-20T21:44:53.402Z,25.49
2023-06-20T21:47:40.032Z,25.48
2023-06-20T21:50:27.031Z,25.46
2023-06-20T21:53:13.786Z,25.43
2023-06-20T21:56:00.535Z,25.42
2023-06-20T21:58:47.342Z,25.44
2023-06-20T22:01:34.010Z,25.46
2023-06-20T22:04:20.630Z,25.45
2023-06-20T22:07:08.912Z,25.46
2023-06-20T22:10:03.147Z,25.46
2023-06-20T22:12:51.064Z,25.45
2023-06-20T22:15:37.877Z,25.42
2023-06-20T22:18:24.688Z,25.42
2023-06-20T22:21:11.077Z,25.39
2023-06-20T22:23:57.937Z,25.38
2023-06-20T22:26:49.792Z,25.38
2023-06-20T22:29:36.616Z,25.39
2023-06-20T22:32:23.882Z,25.38
2023-06-20T22:35:10.813Z,25.38
2023-06-20T22:37:57.418Z,25.36
2023-06-20T22:40:45.079Z,25.35
2023-06-20T22:43:32.484Z,25.34
2023-06-20T22:46:24.377Z,25.34
2023-06-20T22:49:11.744Z,25.32
2023-06-20T22:51:58.180Z,25.31
2023-06-20T22:54:45.147Z,25.26
2023-06-20T22:57:32.031Z,25.19
2023-06-20T23:00:19.570Z,25.14
2023-06-20T23:03:06.084Z,25.09
2023-06-20T23:05:52.595Z,25.03
2023-06-20T23:08:39.264Z,24.99
2023-06-20T23:11:28.185Z,24.96
2023-06-20T23:14:14.481Z,24.94
2023-06-20T23:17:01.304Z,24.93
2023-06-20T23:19:49.546Z,24.92
2023-06-20T23:22:37.644Z,24.90
2023-06-20T23:25:24.276Z,24.85
2023-06-20T23:28:11.349Z,24.79
2023-06-20T23:30:58.130Z,24.75
2023-06-20T23:33:45.181Z,24.71
2023-06-20T23:36:32.234Z,24.66
2023-06-20T23:39:18.875Z,24.61
2023-06-20T23:42:05.935Z,24.56
2023-06-20T23:44:52.329Z,24.53
2023-06-20T23:47:39.123Z,24.51
2023-06-20T23:50:25.944Z,24.46
2023-06-20T23:53:13.867Z,24.42
2023-06-20T23:56:00.472Z,24.35
2023-06-20T23:58:46.651Z,24.29
